Port Star — 3EAS6 — position and weather

sailwx.info

Track history (hours):
 
Tides and Currents Weather Stations Pressure Air Temp Water Temp Dewpoint Dewpoint Depression Visibility Wind Speed Wind Dir Waves Ship Positions

Port Star

Last reported at 2014-Nov-30 17:32 UTC. Time now 2014-Dec-19 08:01 UTC.
Position N 34°41' E 010°51'.
Warning: this ship's position is 18 days out of date.

Length 175.5 m; beam 29.4 m.

Type: Ship. MMSI: 356105000.

Date/timePositionNaut miles runAvg speedWind from/ knotsBaromVisibWave heightAir tempDewpointWater temp
2014-Nov-30 17:32N 34°41' E 010°51'0 0.0
2014-Nov-30 11:26N 34°41' E 010°51'  
2014-Nov-23 01:26N 34°47' E 013°04'9212.9
2014-Nov-22 18:15N 35°43' E 014°34'14 3.7
2014-Nov-22 14:31N 35°53' E 014°46'0 0.1
2014-Nov-22 12:32N 35°53' E 014°46'10 7.1
2014-Nov-22 11:11N 35°58' E 014°36'1 0.8
2014-Nov-22 10:26N 35°57' E 014°35'3 3.3
2014-Nov-22 09:33N 35°57' E 014°38'9 9.3
2014-Nov-22 08:33N 35°56' E 014°50'  
Track history (hours):
 
Tides and Currents Weather Stations Pressure Air Temp Water Temp Dewpoint Dewpoint Depression Visibility Wind Speed Wind Dir Waves Ship Positions

Port Star

Last reported at 2014-Nov-30 17:32 UTC. Time now 2014-Dec-19 08:01 UTC.
Position N 34°41' E 010°51'.
Warning: this ship's position is 18 days out of date.

Length 175.5 m; beam 29.4 m.

Type: Ship. MMSI: 356105000.

Date/timePositionNaut miles runAvg speedWind from/ knotsBaromVisibWave heightAir tempDewpointWater temp
2014-Nov-30 17:32N 34°41' E 010°51'0 0.0
2014-Nov-30 11:26N 34°41' E 010°51'  
2014-Nov-23 01:26N 34°47' E 013°04'9212.9
2014-Nov-22 18:15N 35°43' E 014°34'14 3.7
2014-Nov-22 14:31N 35°53' E 014°46'0 0.1
2014-Nov-22 12:32N 35°53' E 014°46'10 7.1
2014-Nov-22 11:11N 35°58' E 014°36'1 0.8
2014-Nov-22 10:26N 35°57' E 014°35'3 3.3
2014-Nov-22 09:33N 35°57' E 014°38'9 9.3
2014-Nov-22 08:33N 35°56' E 014°50'  

Dump ship's entire track history